createdAt,value
2017-08-29T00:00:29.519Z,84.21
2017-08-29T00:02:57.131Z,84.33
2017-08-29T00:05:24.749Z,83.91
2017-08-29T00:07:52.350Z,84.15
2017-08-29T00:10:19.936Z,85.07
2017-08-29T00:12:47.565Z,85.03
2017-08-29T00:15:15.192Z,85.35
2017-08-29T00:17:43.212Z,85.44
2017-08-29T00:20:10.835Z,85.46
2017-08-29T00:22:38.436Z,85.81
2017-08-29T00:25:06.053Z,85.50
2017-08-29T00:27:33.631Z,85.34
2017-08-29T00:30:01.249Z,85.45
2017-08-29T00:32:28.914Z,85.65
2017-08-29T00:34:56.548Z,86.15
2017-08-29T00:37:24.137Z,86.30
2017-08-29T00:39:52.134Z,86.38
2017-08-29T00:42:19.747Z,86.71
2017-08-29T00:44:47.344Z,86.88
2017-08-29T00:47:15.314Z,86.99
2017-08-29T00:49:42.917Z,86.81
2017-08-29T00:52:10.532Z,87.07
2017-08-29T00:54:38.134Z,87.15
2017-08-29T00:57:05.790Z,87.38
2017-08-29T00:59:33.580Z,86.93
2017-08-29T01:02:01.311Z,87.08
2017-08-29T01:04:28.900Z,87.09
2017-08-29T01:06:57.192Z,87.19
2017-08-29T01:09:25.279Z,87.35
2017-08-29T01:11:52.894Z,87.32
2017-08-29T01:14:20.592Z,87.42
2017-08-29T01:16:48.209Z,87.54
2017-08-29T01:19:15.984Z,87.39
2017-08-29T01:21:43.574Z,87.26
2017-08-29T01:24:11.362Z,87.22
2017-08-29T01:26:38.942Z,87.44
2017-08-29T01:29:06.699Z,87.71
2017-08-29T01:31:34.300Z,87.85
2017-08-29T01:34:01.914Z,87.92
2017-08-29T01:36:29.536Z,88.24
2017-08-29T01:38:57.122Z,88.01
2017-08-29T01:41:24.782Z,87.56
2017-08-29T01:43:52.403Z,87.53
2017-08-29T01:46:20.098Z,87.67
2017-08-29T01:48:47.697Z,87.56
2017-08-29T01:51:15.313Z,87.60
2017-08-29T01:53:42.921Z,87.81
2017-08-29T01:56:10.540Z,87.67
2017-08-29T01:58:38.137Z,87.89
2017-08-29T02:01:06.128Z,88.13
2017-08-29T02:03:33.717Z,88.24
2017-08-29T02:06:01.328Z,88.20
2017-08-29T02:08:28.950Z,88.52
2017-08-29T02:10:56.555Z,88.15
2017-08-29T02:13:24.267Z,88.23
2017-08-29T02:15:51.944Z,88.29
2017-08-29T02:18:19.561Z,88.67
2017-08-29T02:20:47.179Z,88.64
2017-08-29T02:23:14.796Z,88.24
2017-08-29T02:25:42.407Z,88.10
2017-08-29T02:28:10.395Z,87.72
2017-08-29T02:30:37.970Z,87.26
2017-08-29T02:33:05.583Z,87.21
2017-08-29T02:35:33.223Z,87.31
2017-08-29T02:38:01.840Z,87.77
2017-08-29T02:40:29.583Z,88.08
2017-08-29T02:42:57.181Z,88.48
2017-08-29T02:45:24.803Z,88.24
2017-08-29T02:47:52.409Z,87.94
2017-08-29T02:50:20.320Z,87.88
2017-08-29T02:52:47.940Z,88.25
2017-08-29T02:55:15.523Z,88.41
2017-08-29T02:57:43.135Z,88.55
2017-08-29T03:00:10.713Z,88.65
2017-08-29T03:02:44.227Z,89.47
2017-08-29T03:05:11.845Z,89.17
2017-08-29T03:07:39.515Z,89.14
2017-08-29T03:10:07.148Z,89.08
2017-08-29T03:12:34.728Z,88.70
2017-08-29T03:15:02.340Z,88.55
2017-08-29T03:17:30.019Z,88.45
2017-08-29T03:19:57.623Z,88.54
2017-08-29T03:22:25.242Z,88.63
2017-08-29T03:24:52.855Z,88.67
2017-08-29T03:27:20.486Z,89.00
2017-08-29T03:29:48.090Z,89.32
2017-08-29T03:32:15.743Z,89.14
2017-08-29T03:34:43.352Z,89.11
2017-08-29T03:37:10.958Z,89.35
2017-08-29T03:39:38.572Z,89.28
2017-08-29T03:42:06.167Z,89.12
2017-08-29T03:44:33.792Z,88.85
2017-08-29T03:47:01.419Z,88.56
2017-08-29T03:49:29.013Z,88.58
2017-08-29T03:51:56.620Z,89.16
2017-08-29T03:54:24.208Z,89.80
2017-08-29T03:56:51.835Z,90.59
2017-08-29T03:59:19.430Z,91.17
2017-08-29T04:01:47.066Z,91.66
2017-08-29T04:04:14.674Z,92.00
2017-08-29T04:06:42.343Z,92.39
2017-08-29T04:09:10.005Z,92.67
2017-08-29T04:11:37.605Z,92.99
2017-08-29T04:14:05.254Z,93.10
2017-08-29T04:16:33.023Z,93.01
2017-08-29T04:19:00.677Z,92.96
2017-08-29T04:21:28.258Z,92.93
2017-08-29T04:23:55.882Z,92.89
2017-08-29T04:26:23.480Z,92.91
2017-08-29T04:28:51.587Z,92.89
2017-08-29T04:31:19.170Z,92.92
2017-08-29T04:33:46.780Z,93.09
2017-08-29T04:36:14.409Z,93.32
2017-08-29T04:38:42.024Z,93.53
2017-08-29T04:41:09.657Z,93.79
2017-08-29T04:43:37.258Z,93.79
2017-08-29T04:46:04.865Z,93.93
2017-08-29T04:48:32.488Z,93.82
2017-08-29T04:51:00.117Z,93.77
2017-08-29T04:53:27.827Z,93.83
2017-08-29T04:55:55.437Z,93.69
2017-08-29T04:58:23.077Z,93.51
2017-08-29T05:00:50.702Z,93.47
2017-08-29T05:03:18.322Z,93.65
2017-08-29T05:05:45.900Z,93.71
2017-08-29T05:08:13.527Z,93.94
2017-08-29T05:10:41.127Z,94.00
2017-08-29T05:13:08.757Z,93.98
2017-08-29T05:15:36.357Z,93.85
2017-08-29T05:18:03.951Z,93.69
2017-08-29T05:20:31.547Z,93.44
2017-08-29T05:22:59.150Z,93.21
2017-08-29T05:25:26.838Z,92.84
2017-08-29T05:27:54.449Z,92.46
2017-08-29T05:30:22.108Z,91.97
2017-08-29T05:32:49.709Z,91.56
2017-08-29T05:35:17.309Z,91.25
2017-08-29T05:37:44.913Z,90.77
2017-08-29T05:40:13.078Z,90.54
2017-08-29T05:42:40.713Z,90.40
2017-08-29T05:45:08.332Z,90.29
2017-08-29T05:47:35.941Z,90.25
2017-08-29T05:50:03.565Z,90.18
2017-08-29T05:52:31.191Z,90.11
2017-08-29T05:54:58.811Z,90.00
2017-08-29T05:57:26.503Z,89.82
2017-08-29T05:59:54.120Z,89.50
2017-08-29T06:02:21.764Z,89.33
2017-08-29T06:04:49.447Z,89.02
2017-08-29T06:07:17.064Z,88.73
2017-08-29T06:09:44.685Z,88.64
2017-08-29T06:12:12.292Z,88.56
2017-08-29T06:14:39.936Z,88.65
2017-08-29T06:17:07.533Z,88.58
2017-08-29T06:19:35.148Z,88.29
2017-08-29T06:22:02.845Z,87.96
2017-08-29T06:24:30.457Z,87.80
2017-08-29T06:26:58.099Z,87.24
2017-08-29T06:29:25.702Z,87.18
2017-08-29T06:31:53.340Z,87.27
2017-08-29T06:34:20.986Z,87.00
2017-08-29T06:36:48.717Z,86.95
2017-08-29T06:39:16.327Z,86.55
2017-08-29T06:41:44.223Z,86.08
2017-08-29T06:44:11.847Z,85.61
2017-08-29T06:46:39.604Z,85.56
2017-08-29T06:49:07.247Z,85.36
2017-08-29T06:51:34.846Z,84.95
2017-08-29T06:54:08.546Z,84.76
2017-08-29T06:56:36.133Z,84.61
2017-08-29T06:59:03.769Z,84.64
2017-08-29T07:01:31.378Z,84.35
2017-08-29T07:03:59.011Z,84.05
2017-08-29T07:06:26.617Z,84.40
2017-08-29T07:08:54.237Z,84.27
2017-08-29T07:11:21.861Z,83.88
2017-08-29T07:13:49.536Z,84.13
2017-08-29T07:16:17.165Z,84.10
2017-08-29T07:18:44.793Z,83.37
2017-08-29T07:21:12.413Z,83.10
2017-08-29T07:23:40.171Z,83.61
2017-08-29T07:26:07.821Z,82.84
2017-08-29T07:28:35.449Z,82.94
2017-08-29T07:31:03.337Z,81.27
2017-08-29T07:33:30.962Z,80.97
2017-08-29T07:35:58.563Z,81.13
2017-08-29T07:38:26.265Z,81.49
2017-08-29T07:40:54.030Z,80.95
2017-08-29T07:43:21.888Z,80.54
2017-08-29T07:45:49.493Z,80.13
2017-08-29T07:48:17.106Z,80.14
2017-08-29T07:50:44.749Z,79.18
2017-08-29T07:53:12.386Z,79.05
2017-08-29T07:55:39.978Z,79.08
2017-08-29T07:58:07.944Z,78.48
2017-08-29T08:00:35.562Z,79.29
2017-08-29T08:03:03.186Z,79.07
2017-08-29T08:05:30.966Z,78.48
2017-08-29T08:07:58.612Z,78.17
2017-08-29T08:10:26.250Z,77.31
2017-08-29T08:12:53.907Z,77.20
2017-08-29T08:15:21.513Z,76.68
2017-08-29T08:17:49.339Z,76.90
2017-08-29T08:20:16.961Z,76.33
2017-08-29T08:22:44.583Z,76.26
2017-08-29T08:25:12.527Z,75.16
2017-08-29T08:27:40.122Z,74.66
2017-08-29T08:30:07.793Z,74.56
2017-08-29T08:32:35.441Z,73.73
2017-08-29T08:35:03.081Z,73.85
2017-08-29T08:37:30.752Z,73.71
2017-08-29T08:39:58.343Z,73.75
2017-08-29T08:42:26.010Z,73.92
2017-08-29T08:44:53.808Z,73.10
2017-08-29T08:47:21.432Z,72.66
2017-08-29T08:49:49.139Z,72.91
2017-08-29T08:52:17.295Z,72.20
2017-08-29T08:54:44.907Z,71.10
2017-08-29T08:57:12.723Z,71.74
2017-08-29T08:59:40.402Z,70.49
2017-08-29T09:02:08.018Z,69.46
2017-08-29T09:04:35.665Z,69.89
2017-08-29T09:07:03.280Z,69.84
2017-08-29T09:09:30.911Z,70.70
2017-08-29T09:11:58.529Z,70.99
2017-08-29T09:14:26.439Z,70.25
2017-08-29T09:16:54.036Z,71.21
2017-08-29T09:19:21.654Z,70.44
2017-08-29T09:21:49.271Z,70.42
2017-08-29T09:24:16.913Z,69.71
2017-08-29T09:26:44.629Z,70.03
2017-08-29T09:29:12.225Z,69.81
2017-08-29T09:31:39.862Z,69.48
2017-08-29T09:34:07.476Z,68.63
2017-08-29T09:36:35.136Z,69.34
2017-08-29T09:39:02.735Z,67.75
2017-08-29T09:41:30.359Z,68.40
2017-08-29T09:43:57.982Z,68.81
2017-08-29T09:46:26.010Z,67.14
2017-08-29T09:48:53.615Z,67.61
2017-08-29T09:51:21.225Z,69.40
2017-08-29T09:53:48.916Z,67.55
2017-08-29T09:56:16.540Z,67.30
2017-08-29T09:58:44.184Z,67.02
2017-08-29T10:01:11.814Z,66.75
2017-08-29T10:03:39.612Z,66.27
2017-08-29T10:06:07.274Z,65.67
2017-08-29T10:08:34.930Z,65.46
2017-08-29T10:11:02.562Z,65.20
2017-08-29T10:13:30.189Z,64.72
2017-08-29T10:15:57.799Z,64.01
2017-08-29T10:18:25.437Z,63.59
2017-08-29T10:20:53.302Z,63.31
2017-08-29T10:23:20.933Z,62.00
2017-08-29T10:25:48.547Z,62.93
2017-08-29T10:28:16.144Z,63.73
2017-08-29T10:30:43.772Z,63.41
2017-08-29T10:33:11.985Z,62.72
2017-08-29T10:35:39.687Z,62.32
2017-08-29T10:38:07.295Z,59.55
2017-08-29T10:40:34.950Z,61.52
2017-08-29T10:43:02.588Z,60.45
2017-08-29T10:45:30.198Z,61.43
2017-08-29T10:47:57.840Z,60.08
2017-08-29T10:50:25.428Z,62.60
2017-08-29T10:52:53.027Z,60.77
2017-08-29T10:55:20.736Z,58.10
2017-08-29T10:57:48.541Z,59.27
2017-08-29T11:00:16.254Z,58.66
2017-08-29T11:02:43.895Z,59.35
2017-08-29T11:05:11.472Z,56.93
2017-08-29T11:07:39.063Z,56.48
2017-08-29T11:10:06.708Z,56.27
2017-08-29T11:12:34.309Z,56.30
2017-08-29T11:15:01.920Z,56.93
2017-08-29T11:17:29.515Z,55.20
2017-08-29T11:19:57.146Z,56.86
2017-08-29T11:22:24.757Z,57.01
2017-08-29T11:24:52.427Z,58.40
2017-08-29T11:27:20.098Z,58.55
2017-08-29T11:29:47.686Z,56.50
2017-08-29T11:32:15.334Z,55.64
2017-08-29T11:34:42.924Z,53.95
2017-08-29T11:37:10.528Z,56.27
2017-08-29T11:39:38.106Z,55.79
2017-08-29T11:42:05.722Z,55.63
2017-08-29T11:44:33.312Z,56.87
2017-08-29T11:47:00.926Z,57.55
2017-08-29T11:49:28.499Z,54.98
2017-08-29T11:51:56.142Z,53.08
2017-08-29T11:54:23.776Z,55.05
2017-08-29T11:56:51.374Z,56.37
2017-08-29T11:59:19.657Z,56.79
2017-08-29T12:01:47.246Z,55.81
2017-08-29T12:04:15.014Z,54.71
2017-08-29T12:06:42.636Z,54.35
2017-08-29T12:09:10.256Z,53.05
2017-08-29T12:11:37.868Z,54.45
2017-08-29T12:14:05.499Z,53.07
2017-08-29T12:16:33.100Z,54.19
2017-08-29T12:19:00.701Z,54.46
2017-08-29T12:21:28.308Z,54.38
2017-08-29T12:23:55.912Z,53.88
2017-08-29T12:26:23.552Z,52.85
2017-08-29T12:28:51.161Z,54.05
2017-08-29T12:31:18.806Z,51.98
2017-08-29T12:33:46.405Z,51.92
2017-08-29T12:36:14.045Z,54.12
2017-08-29T12:38:41.687Z,52.77
2017-08-29T12:41:09.389Z,51.48
2017-08-29T12:43:36.982Z,51.58
2017-08-29T12:46:04.576Z,52.23
2017-08-29T12:48:32.210Z,51.24
2017-08-29T12:50:59.823Z,51.94
2017-08-29T12:53:27.464Z,49.93
2017-08-29T12:55:55.115Z,51.79
2017-08-29T12:58:22.703Z,50.88
2017-08-29T13:00:50.300Z,51.29
2017-08-29T13:03:18.289Z,49.57
2017-08-29T13:05:45.883Z,49.74
2017-08-29T13:08:13.496Z,48.80
2017-08-29T13:10:41.109Z,46.60
2017-08-29T13:13:08.669Z,47.16
2017-08-29T13:15:36.313Z,50.43
2017-08-29T13:18:03.953Z,47.73
2017-08-29T13:20:31.572Z,47.61
2017-08-29T13:22:59.179Z,47.68
2017-08-29T13:25:26.836Z,49.38
2017-08-29T13:27:54.426Z,49.79
2017-08-29T13:30:22.373Z,49.27
2017-08-29T13:32:50.007Z,48.20
2017-08-29T13:35:17.637Z,47.86
2017-08-29T13:37:45.529Z,47.20
2017-08-29T13:40:13.136Z,44.22
2017-08-29T13:42:40.786Z,44.81
2017-08-29T13:45:08.413Z,45.83
2017-08-29T13:47:36.038Z,45.68
2017-08-29T13:50:03.636Z,46.73
2017-08-29T13:52:31.626Z,45.19
2017-08-29T13:54:59.217Z,45.17
2017-08-29T13:57:26.884Z,45.62
2017-08-29T13:59:54.509Z,45.98
2017-08-29T14:02:22.113Z,44.85
2017-08-29T14:04:49.744Z,44.33
2017-08-29T14:07:17.347Z,45.37
2017-08-29T14:09:45.005Z,45.53
2017-08-29T14:12:12.611Z,45.09
2017-08-29T14:14:40.410Z,42.03
2017-08-29T14:17:08.024Z,42.36
2017-08-29T14:19:36.886Z,45.71
2017-08-29T14:22:04.516Z,44.25
2017-08-29T14:24:32.150Z,43.76
2017-08-29T14:27:00.083Z,45.26
2017-08-29T14:29:27.682Z,45.73
2017-08-29T14:31:55.296Z,43.73
2017-08-29T14:34:22.964Z,41.56
2017-08-29T14:36:50.565Z,40.65
2017-08-29T14:39:18.289Z,38.85
2017-08-29T14:41:45.895Z,38.48
2017-08-29T14:44:13.872Z,38.29
2017-08-29T14:46:53.426Z,39.31
2017-08-29T14:49:21.376Z,40.01
2017-08-29T14:51:48.971Z,38.25
2017-08-29T14:54:16.698Z,39.40
2017-08-29T14:56:44.295Z,41.57
2017-08-29T14:59:11.870Z,39.93
2017-08-29T15:01:39.921Z,40.73
2017-08-29T15:04:07.504Z,38.98
2017-08-29T15:06:35.095Z,38.03
2017-08-29T15:09:02.718Z,36.80
2017-08-29T15:11:30.301Z,39.12
2017-08-29T15:13:57.977Z,37.53
2017-08-29T15:16:25.686Z,39.48
2017-08-29T15:18:53.307Z,36.04
2017-08-29T15:21:20.907Z,35.85
2017-08-29T15:23:48.591Z,37.29
2017-08-29T15:26:16.214Z,38.28
2017-08-29T15:28:43.805Z,37.46
2017-08-29T15:31:11.418Z,36.84
2017-08-29T15:33:39.004Z,36.88
2017-08-29T15:36:06.645Z,35.66
2017-08-29T15:38:34.237Z,36.42
2017-08-29T15:41:01.863Z,37.04
2017-08-29T15:43:29.446Z,37.58
2017-08-29T15:45:57.409Z,37.85
2017-08-29T15:48:24.997Z,39.20
2017-08-29T15:50:52.586Z,37.45
2017-08-29T15:53:20.189Z,38.01
2017-08-29T15:55:47.788Z,37.53
2017-08-29T15:58:15.384Z,37.90
2017-08-29T16:00:43.103Z,38.54
2017-08-29T16:03:10.720Z,37.10
2017-08-29T16:05:38.347Z,39.15
2017-08-29T16:08:05.961Z,39.76
2017-08-29T16:10:33.561Z,40.21
2017-08-29T16:13:01.232Z,41.52
2017-08-29T16:15:28.829Z,40.99
2017-08-29T16:17:56.710Z,41.53
2017-08-29T16:20:24.308Z,42.33
2017-08-29T16:22:51.906Z,43.18
2017-08-29T16:25:19.613Z,43.12
2017-08-29T16:27:47.261Z,44.41
2017-08-29T16:30:14.886Z,44.30
2017-08-29T16:32:42.485Z,44.08
2017-08-29T16:35:10.243Z,44.79
2017-08-29T16:37:37.857Z,45.03
2017-08-29T16:40:05.781Z,45.77
2017-08-29T16:42:33.475Z,45.45
2017-08-29T16:45:01.084Z,45.63
2017-08-29T16:47:28.711Z,45.74
2017-08-29T16:49:56.450Z,47.00
2017-08-29T16:52:24.107Z,46.91
2017-08-29T16:54:51.725Z,47.34
2017-08-29T16:57:20.491Z,48.04
2017-08-29T16:59:48.089Z,48.00
2017-08-29T17:02:15.728Z,48.33
2017-08-29T17:04:43.345Z,48.13
2017-08-29T17:07:11.059Z,48.38
2017-08-29T17:09:38.640Z,48.63
2017-08-29T17:12:06.384Z,49.01
2017-08-29T17:14:34.009Z,49.25
2017-08-29T17:17:01.951Z,49.64
2017-08-29T17:19:29.573Z,49.91
2017-08-29T17:21:57.183Z,49.94
2017-08-29T17:24:25.044Z,50.50
2017-08-29T17:26:52.648Z,50.82
2017-08-29T17:29:20.263Z,50.98
2017-08-29T17:31:47.846Z,51.13
2017-08-29T17:34:15.628Z,51.50
2017-08-29T17:36:43.230Z,52.14
2017-08-29T17:39:11.202Z,52.77
2017-08-29T17:41:38.836Z,53.11
2017-08-29T17:44:06.434Z,53.62
2017-08-29T17:46:34.073Z,53.09
2017-08-29T17:49:01.685Z,53.40
2017-08-29T17:51:29.313Z,53.79
2017-08-29T17:53:56.954Z,53.81
2017-08-29T17:56:24.674Z,53.92
2017-08-29T17:58:52.288Z,54.51
2017-08-29T18:01:19.915Z,54.95
2017-08-29T18:03:47.551Z,54.81
2017-08-29T18:06:15.457Z,55.28
2017-08-29T18:08:43.059Z,55.62
2017-08-29T18:11:10.685Z,55.91
2017-08-29T18:13:38.306Z,55.94
2017-08-29T18:16:05.898Z,56.49
2017-08-29T18:18:33.510Z,56.93
2017-08-29T18:21:01.194Z,56.42
2017-08-29T18:23:28.804Z,57.12
2017-08-29T18:25:56.524Z,57.67
2017-08-29T18:28:24.787Z,57.70
2017-08-29T18:30:52.378Z,58.31
2017-08-29T18:33:20.158Z,58.46
2017-08-29T18:35:47.794Z,58.92
2017-08-29T18:38:15.678Z,58.57
2017-08-29T18:40:43.285Z,58.72
2017-08-29T18:43:10.912Z,58.78
2017-08-29T18:45:38.542Z,59.08
2017-08-29T18:48:06.199Z,59.50
2017-08-29T18:50:33.799Z,60.26
2017-08-29T18:53:01.396Z,61.04
2017-08-29T18:55:29.045Z,62.26
2017-08-29T18:57:56.655Z,62.58
2017-08-29T19:00:24.280Z,62.37
2017-08-29T19:02:52.063Z,63.83
2017-08-29T19:05:20.046Z,63.83
2017-08-29T19:07:47.662Z,64.67
2017-08-29T19:10:15.348Z,64.87
2017-08-29T19:12:43.043Z,65.92
2017-08-29T19:15:10.634Z,66.23
2017-08-29T19:17:38.288Z,66.10
2017-08-29T19:20:05.965Z,66.67
2017-08-29T19:22:33.571Z,67.41
2017-08-29T19:25:01.181Z,67.26
2017-08-29T19:27:28.846Z,67.04
2017-08-29T19:29:56.451Z,66.68
2017-08-29T19:32:24.642Z,66.99
2017-08-29T19:34:52.275Z,68.12
2017-08-29T19:37:19.912Z,67.96
2017-08-29T19:39:47.522Z,67.52
2017-08-29T19:42:15.198Z,67.25
2017-08-29T19:44:43.017Z,68.21
2017-08-29T19:47:10.638Z,68.05
2017-08-29T19:49:38.289Z,67.63
2017-08-29T19:52:05.946Z,67.65
2017-08-29T19:54:33.646Z,67.43
2017-08-29T19:57:01.235Z,67.69
2017-08-29T19:59:29.135Z,68.56
2017-08-29T20:01:56.835Z,68.67
2017-08-29T20:04:24.506Z,67.72
2017-08-29T20:06:52.218Z,68.17
2017-08-29T20:09:19.921Z,69.28
2017-08-29T20:11:47.532Z,68.73
2017-08-29T20:14:15.104Z,68.68
2017-08-29T20:16:42.725Z,69.95
2017-08-29T20:19:10.498Z,69.06
2017-08-29T20:21:38.135Z,69.88
2017-08-29T20:24:05.895Z,70.75
2017-08-29T20:26:33.519Z,70.77
2017-08-29T20:29:01.200Z,70.75
2017-08-29T20:31:29.098Z,71.32
2017-08-29T20:33:56.838Z,71.57
2017-08-29T20:36:24.449Z,71.34
2017-08-29T20:38:52.083Z,72.07
2017-08-29T20:41:19.694Z,71.37
2017-08-29T20:43:47.326Z,71.33
2017-08-29T20:46:15.112Z,72.21
2017-08-29T20:48:42.728Z,72.21
2017-08-29T20:51:10.431Z,72.24
2017-08-29T20:53:38.064Z,71.79
2017-08-29T20:56:05.645Z,71.16
2017-08-29T20:58:33.606Z,70.94
2017-08-29T21:01:01.232Z,71.61
2017-08-29T21:03:29.012Z,71.45
2017-08-29T21:05:56.630Z,71.33
2017-08-29T21:08:24.220Z,71.34
2017-08-29T21:10:51.877Z,71.77
2017-08-29T21:13:19.550Z,71.26
2017-08-29T21:15:47.180Z,71.34
2017-08-29T21:18:14.814Z,71.98
2017-08-29T21:20:42.436Z,72.08
2017-08-29T21:23:10.054Z,71.91
2017-08-29T21:25:37.754Z,72.40
2017-08-29T21:28:05.341Z,72.39
2017-08-29T21:30:33.328Z,73.30
2017-08-29T21:33:00.925Z,73.49
2017-08-29T21:35:28.528Z,72.72
2017-08-29T21:37:56.550Z,72.24
2017-08-29T21:40:24.153Z,71.93
2017-08-29T21:42:51.773Z,71.31
2017-08-29T21:45:19.387Z,71.98
2017-08-29T21:47:47.012Z,71.94
2017-08-29T21:50:14.617Z,71.71
2017-08-29T21:52:42.215Z,72.50
2017-08-29T21:55:09.822Z,72.73
2017-08-29T21:57:37.950Z,72.57
2017-08-29T22:00:05.702Z,72.30
2017-08-29T22:02:33.309Z,72.18
2017-08-29T22:05:00.996Z,73.02
2017-08-29T22:07:28.584Z,73.63
2017-08-29T22:09:56.200Z,74.88
2017-08-29T22:12:23.840Z,75.09
2017-08-29T22:14:51.429Z,75.62
2017-08-29T22:17:19.139Z,75.22
2017-08-29T22:19:46.751Z,75.58
2017-08-29T22:22:14.323Z,76.07
2017-08-29T22:24:42.227Z,76.28
2017-08-29T22:27:09.829Z,76.00
2017-08-29T22:29:37.425Z,76.23
2017-08-29T22:32:05.126Z,76.37
2017-08-29T22:34:32.725Z,76.49
2017-08-29T22:37:00.460Z,76.32
2017-08-29T22:39:28.041Z,76.30
2017-08-29T22:41:55.660Z,75.97
2017-08-29T22:44:23.264Z,76.04
2017-08-29T22:46:50.888Z,76.61
2017-08-29T22:49:18.481Z,76.55
2017-08-29T22:51:46.078Z,76.24
2017-08-29T22:54:13.658Z,76.21
2017-08-29T22:56:41.274Z,76.42
2017-08-29T22:59:08.829Z,76.89
2017-08-29T23:01:36.816Z,76.52
2017-08-29T23:04:04.389Z,76.68
2017-08-29T23:06:32.007Z,76.92
2017-08-29T23:08:59.624Z,77.45
2017-08-29T23:11:27.226Z,77.46
2017-08-29T23:13:54.850Z,78.00
2017-08-29T23:16:22.448Z,77.96
2017-08-29T23:18:50.010Z,78.52
2017-08-29T23:21:17.617Z,78.24
2017-08-29T23:23:45.299Z,78.31
2017-08-29T23:26:12.875Z,77.73
2017-08-29T23:28:40.485Z,77.18
2017-08-29T23:31:08.066Z,76.72
2017-08-29T23:33:35.676Z,77.16
2017-08-29T23:36:03.286Z,76.61
2017-08-29T23:38:31.565Z,76.75
2017-08-29T23:40:59.235Z,76.75
2017-08-29T23:43:26.819Z,77.04
2017-08-29T23:45:54.434Z,76.62
2017-08-29T23:48:22.130Z,77.07
2017-08-29T23:50:49.741Z,76.52
2017-08-29T23:53:17.320Z,76.44
2017-08-29T23:55:44.963Z,76.60
2017-08-29T23:58:12.556Z,76.72
